METAR Formatted Surface Weather Observation
Issued by NWS

Home | Current Version | Previous Version | Text Only | Print | Product List | Glossary On
Versions: 1 2 3 4 5 6 7 8 9 10 11
000
SAUS46 KSEW 200158
MTRSMP
METAR KSMP 200156Z AUTO 29007KT 10SM OVC021 13/09 A3017 RMK AO2
SLP207 T01280094 $



USA.gov is the U.S. government's official web portal to all federal, state and local government web resources and services.